sensor_id;sensor_type;location;lat;lon;timestamp;P1;durP1;ratioP1;P2;durP2;ratioP2
29214;SDS011;16252;49.816;7.964;2023-07-24T00:00:52;2.13;;;1.80;;
29214;SDS011;16252;49.816;7.964;2023-07-24T00:03:17;3.50;;;1.60;;
29214;SDS011;16252;49.816;7.964;2023-07-24T00:05:42;2.42;;;1.65;;
29214;SDS011;16252;49.816;7.964;2023-07-24T00:08:07;2.70;;;1.80;;
29214;SDS011;16252;49.816;7.964;2023-07-24T00:10:33;3.53;;;1.75;;
29214;SDS011;16252;49.816;7.964;2023-07-24T00:12:58;4.70;;;1.60;;
29214;SDS011;16252;49.816;7.964;2023-07-24T00:15:23;2.00;;;1.67;;
29214;SDS011;16252;49.816;7.964;2023-07-24T00:17:48;2.53;;;1.63;;
29214;SDS011;16252;49.816;7.964;2023-07-24T00:20:14;4.07;;;1.95;;
29214;SDS011;16252;49.816;7.964;2023-07-24T00:22:39;2.20;;;1.80;;
29214;SDS011;16252;49.816;7.964;2023-07-24T00:25:05;3.72;;;1.70;;
29214;SDS011;16252;49.816;7.964;2023-07-24T00:27:31;2.05;;;1.77;;
29214;SDS011;16252;49.816;7.964;2023-07-24T00:29:56;2.33;;;1.80;;
29214;SDS011;16252;49.816;7.964;2023-07-24T00:32:21;3.33;;;1.70;;
29214;SDS011;16252;49.816;7.964;2023-07-24T00:34:46;1.88;;;1.42;;
29214;SDS011;16252;49.816;7.964;2023-07-24T00:37:12;2.45;;;1.65;;
29214;SDS011;16252;49.816;7.964;2023-07-24T00:39:37;3.20;;;1.63;;
29214;SDS011;16252;49.816;7.964;2023-07-24T00:42:02;2.13;;;1.60;;
29214;SDS011;16252;49.816;7.964;2023-07-24T00:44:28;2.67;;;1.73;;
29214;SDS011;16252;49.816;7.964;2023-07-24T00:46:53;4.40;;;1.90;;
29214;SDS011;16252;49.816;7.964;2023-07-24T00:49:19;3.90;;;2.00;;
29214;SDS011;16252;49.816;7.964;2023-07-24T00:51:45;4.00;;;1.75;;
29214;SDS011;16252;49.816;7.964;2023-07-24T00:54:11;2.15;;;1.52;;
29214;SDS011;16252;49.816;7.964;2023-07-24T00:56:39;2.33;;;1.60;;
29214;SDS011;16252;49.816;7.964;2023-07-24T00:59:04;2.28;;;1.80;;
29214;SDS011;16252;49.816;7.964;2023-07-24T01:01:29;2.88;;;1.90;;
29214;SDS011;16252;49.816;7.964;2023-07-24T01:03:55;2.03;;;1.52;;
29214;SDS011;16252;49.816;7.964;2023-07-24T01:06:22;3.60;;;1.98;;
29214;SDS011;16252;49.816;7.964;2023-07-24T01:08:48;2.13;;;1.55;;
29214;SDS011;16252;49.816;7.964;2023-07-24T01:14:01;2.70;;;1.77;;
29214;SDS011;16252;49.816;7.964;2023-07-24T01:16:36;2.20;;;1.70;;
29214;SDS011;16252;49.816;7.964;2023-07-24T01:19:03;1.90;;;1.33;;
29214;SDS011;16252;49.816;7.964;2023-07-24T01:21:33;2.35;;;1.63;;
29214;SDS011;16252;49.816;7.964;2023-07-24T01:24:14;1.70;;;1.27;;
29214;SDS011;16252;49.816;7.964;2023-07-24T01:26:56;2.17;;;1.30;;
29214;SDS011;16252;49.816;7.964;2023-07-24T01:29:21;2.22;;;1.70;;
29214;SDS011;16252;49.816;7.964;2023-07-24T01:31:46;1.73;;;1.52;;
29214;SDS011;16252;49.816;7.964;2023-07-24T01:34:12;2.22;;;1.50;;
29214;SDS011;16252;49.816;7.964;2023-07-24T01:36:37;2.88;;;1.67;;
29214;SDS011;16252;49.816;7.964;2023-07-24T01:39:02;2.47;;;1.55;;
29214;SDS011;16252;49.816;7.964;2023-07-24T01:41:28;2.53;;;1.60;;
29214;SDS011;16252;49.816;7.964;2023-07-24T01:43:53;3.25;;;1.85;;
29214;SDS011;16252;49.816;7.964;2023-07-24T01:46:19;2.80;;;1.88;;
29214;SDS011;16252;49.816;7.964;2023-07-24T01:48:44;3.38;;;1.77;;
29214;SDS011;16252;49.816;7.964;2023-07-24T01:51:10;3.85;;;1.52;;
29214;SDS011;16252;49.816;7.964;2023-07-24T01:53:36;2.30;;;1.50;;
29214;SDS011;16252;49.816;7.964;2023-07-24T01:56:01;2.17;;;1.98;;
29214;SDS011;16252;49.816;7.964;2023-07-24T01:58:26;2.92;;;1.63;;
29214;SDS011;16252;49.816;7.964;2023-07-24T02:00:54;2.22;;;1.55;;
29214;SDS011;16252;49.816;7.964;2023-07-24T02:03:20;2.00;;;1.58;;
29214;SDS011;16252;49.816;7.964;2023-07-24T02:05:49;2.63;;;1.90;;
29214;SDS011;16252;49.816;7.964;2023-07-24T02:10:41;8.27;;;1.93;;
29214;SDS011;16252;49.816;7.964;2023-07-24T02:13:06;2.28;;;1.40;;
29214;SDS011;16252;49.816;7.964;2023-07-24T02:15:32;2.42;;;1.75;;
29214;SDS011;16252;49.816;7.964;2023-07-24T02:17:57;2.13;;;1.63;;
29214;SDS011;16252;49.816;7.964;2023-07-24T02:20:23;3.83;;;2.20;;
29214;SDS011;16252;49.816;7.964;2023-07-24T02:22:48;2.45;;;1.42;;
29214;SDS011;16252;49.816;7.964;2023-07-24T02:25:13;4.50;;;1.80;;
29214;SDS011;16252;49.816;7.964;2023-07-24T02:27:39;1.58;;;1.45;;
29214;SDS011;16252;49.816;7.964;2023-07-24T02:30:04;2.53;;;1.50;;
29214;SDS011;16252;49.816;7.964;2023-07-24T02:32:30;2.42;;;1.60;;
29214;SDS011;16252;49.816;7.964;2023-07-24T02:34:55;1.95;;;1.60;;
29214;SDS011;16252;49.816;7.964;2023-07-24T02:37:20;2.50;;;1.60;;
29214;SDS011;16252;49.816;7.964;2023-07-24T02:39:45;2.15;;;1.73;;
29214;SDS011;16252;49.816;7.964;2023-07-24T02:42:11;2.53;;;1.63;;
29214;SDS011;16252;49.816;7.964;2023-07-24T02:44:36;2.00;;;1.60;;
29214;SDS011;16252;49.816;7.964;2023-07-24T02:47:02;2.30;;;1.80;;
29214;SDS011;16252;49.816;7.964;2023-07-24T02:49:28;2.78;;;1.70;;
29214;SDS011;16252;49.816;7.964;2023-07-24T02:51:54;2.20;;;1.55;;
29214;SDS011;16252;49.816;7.964;2023-07-24T02:54:19;2.28;;;1.80;;
29214;SDS011;16252;49.816;7.964;2023-07-24T02:56:44;2.95;;;1.80;;
29214;SDS011;16252;49.816;7.964;2023-07-24T02:59:09;2.85;;;1.90;;
29214;SDS011;16252;49.816;7.964;2023-07-24T03:01:35;2.88;;;1.70;;
29214;SDS011;16252;49.816;7.964;2023-07-24T03:04:01;2.60;;;1.50;;
29214;SDS011;16252;49.816;7.964;2023-07-24T03:06:27;2.47;;;1.50;;
29214;SDS011;16252;49.816;7.964;2023-07-24T03:08:52;1.77;;;1.50;;
29214;SDS011;16252;49.816;7.964;2023-07-24T03:11:17;2.50;;;1.88;;
29214;SDS011;16252;49.816;7.964;2023-07-24T03:13:42;2.67;;;2.00;;
29214;SDS011;16252;49.816;7.964;2023-07-24T03:16:08;2.10;;;1.60;;
29214;SDS011;16252;49.816;7.964;2023-07-24T03:18:33;2.60;;;1.60;;
29214;SDS011;16252;49.816;7.964;2023-07-24T03:20:58;10.48;;;1.77;;
29214;SDS011;16252;49.816;7.964;2023-07-24T03:23:24;2.42;;;1.80;;
29214;SDS011;16252;49.816;7.964;2023-07-24T03:25:49;3.38;;;1.52;;
29214;SDS011;16252;49.816;7.964;2023-07-24T03:28:15;2.67;;;1.90;;
29214;SDS011;16252;49.816;7.964;2023-07-24T03:30:40;2.38;;;1.77;;
29214;SDS011;16252;49.816;7.964;2023-07-24T03:33:05;3.60;;;2.17;;
29214;SDS011;16252;49.816;7.964;2023-07-24T03:35:31;3.22;;;1.90;;
29214;SDS011;16252;49.816;7.964;2023-07-24T03:37:56;2.40;;;1.50;;
29214;SDS011;16252;49.816;7.964;2023-07-24T03:40:22;4.38;;;1.70;;
29214;SDS011;16252;49.816;7.964;2023-07-24T03:42:47;2.25;;;1.85;;
29214;SDS011;16252;49.816;7.964;2023-07-24T03:45:12;3.28;;;1.90;;
29214;SDS011;16252;49.816;7.964;2023-07-24T03:47:37;2.80;;;2.13;;
29214;SDS011;16252;49.816;7.964;2023-07-24T03:50:03;2.35;;;1.60;;
29214;SDS011;16252;49.816;7.964;2023-07-24T03:52:28;2.78;;;1.63;;
29214;SDS011;16252;49.816;7.964;2023-07-24T03:54:53;2.35;;;1.70;;
29214;SDS011;16252;49.816;7.964;2023-07-24T03:57:19;2.60;;;1.95;;
29214;SDS011;16252;49.816;7.964;2023-07-24T03:59:44;2.85;;;1.95;;
29214;SDS011;16252;49.816;7.964;2023-07-24T04:02:09;3.35;;;1.83;;
29214;SDS011;16252;49.816;7.964;2023-07-24T04:04:35;4.38;;;1.77;;
29214;SDS011;16252;49.816;7.964;2023-07-24T04:07:01;2.35;;;1.95;;
29214;SDS011;16252;49.816;7.964;2023-07-24T04:09:26;2.95;;;1.67;;
29214;SDS011;16252;49.816;7.964;2023-07-24T04:11:52;2.22;;;1.45;;
29214;SDS011;16252;49.816;7.964;2023-07-24T04:14:17;3.45;;;1.88;;
29214;SDS011;16252;49.816;7.964;2023-07-24T04:16:42;2.20;;;1.63;;
29214;SDS011;16252;49.816;7.964;2023-07-24T04:19:08;2.22;;;1.48;;
29214;SDS011;16252;49.816;7.964;2023-07-24T04:21:33;2.42;;;1.60;;
29214;SDS011;16252;49.816;7.964;2023-07-24T04:23:59;4.43;;;2.00;;
29214;SDS011;16252;49.816;7.964;2023-07-24T04:26:24;2.72;;;1.85;;
29214;SDS011;16252;49.816;7.964;2023-07-24T04:28:49;2.33;;;1.50;;
29214;SDS011;16252;49.816;7.964;2023-07-24T04:31:14;7.53;;;1.77;;
29214;SDS011;16252;49.816;7.964;2023-07-24T04:33:41;2.78;;;1.60;;
29214;SDS011;16252;49.816;7.964;2023-07-24T04:36:06;2.95;;;1.88;;
29214;SDS011;16252;49.816;7.964;2023-07-24T04:38:31;2.83;;;1.63;;
29214;SDS011;16252;49.816;7.964;2023-07-24T04:40:57;2.47;;;1.70;;
29214;SDS011;16252;49.816;7.964;2023-07-24T04:43:22;3.22;;;1.92;;
29214;SDS011;16252;49.816;7.964;2023-07-24T04:45:47;2.42;;;1.88;;
29214;SDS011;16252;49.816;7.964;2023-07-24T04:48:12;3.65;;;1.73;;
29214;SDS011;16252;49.816;7.964;2023-07-24T04:50:38;2.30;;;1.73;;
29214;SDS011;16252;49.816;7.964;2023-07-24T04:53:03;3.95;;;1.65;;
29214;SDS011;16252;49.816;7.964;2023-07-24T04:55:28;2.35;;;1.67;;
29214;SDS011;16252;49.816;7.964;2023-07-24T04:57:54;2.63;;;1.90;;
29214;SDS011;16252;49.816;7.964;2023-07-24T05:00:19;2.97;;;1.88;;
29214;SDS011;16252;49.816;7.964;2023-07-24T05:02:44;2.70;;;1.90;;
29214;SDS011;16252;49.816;7.964;2023-07-24T05:05:09;2.35;;;1.83;;
29214;SDS011;16252;49.816;7.964;2023-07-24T05:07:35;3.83;;;1.77;;
29214;SDS011;16252;49.816;7.964;2023-07-24T05:10:00;3.67;;;2.03;;
29214;SDS011;16252;49.816;7.964;2023-07-24T05:12:26;3.10;;;1.90;;
29214;SDS011;16252;49.816;7.964;2023-07-24T05:14:51;2.17;;;1.60;;
29214;SDS011;16252;49.816;7.964;2023-07-24T05:17:16;2.65;;;1.92;;
29214;SDS011;16252;49.816;7.964;2023-07-24T05:19:41;2.63;;;1.90;;
29214;SDS011;16252;49.816;7.964;2023-07-24T05:22:07;4.95;;;1.83;;
29214;SDS011;16252;49.816;7.964;2023-07-24T05:24:32;2.45;;;1.95;;
29214;SDS011;16252;49.816;7.964;2023-07-24T05:26:58;3.35;;;1.70;;
29214;SDS011;16252;49.816;7.964;2023-07-24T05:29:23;4.63;;;1.80;;
29214;SDS011;16252;49.816;7.964;2023-07-24T05:31:48;2.55;;;1.55;;
29214;SDS011;16252;49.816;7.964;2023-07-24T05:34:14;3.97;;;2.33;;
29214;SDS011;16252;49.816;7.964;2023-07-24T05:36:40;2.33;;;1.92;;
29214;SDS011;16252;49.816;7.964;2023-07-24T05:39:05;4.53;;;1.98;;
29214;SDS011;16252;49.816;7.964;2023-07-24T05:41:31;2.30;;;1.75;;
29214;SDS011;16252;49.816;7.964;2023-07-24T05:43:56;4.63;;;1.80;;
29214;SDS011;16252;49.816;7.964;2023-07-24T05:46:21;1.90;;;1.52;;
29214;SDS011;16252;49.816;7.964;2023-07-24T05:48:47;3.45;;;1.83;;
29214;SDS011;16252;49.816;7.964;2023-07-24T05:51:12;1.45;;;1.30;;
29214;SDS011;16252;49.816;7.964;2023-07-24T05:53:38;2.13;;;1.50;;
29214;SDS011;16252;49.816;7.964;2023-07-24T05:56:03;5.20;;;1.98;;
29214;SDS011;16252;49.816;7.964;2023-07-24T05:58:28;4.10;;;1.80;;
29214;SDS011;16252;49.816;7.964;2023-07-24T06:00:54;2.67;;;2.17;;
29214;SDS011;16252;49.816;7.964;2023-07-24T06:03:20;2.38;;;1.50;;
29214;SDS011;16252;49.816;7.964;2023-07-24T06:05:46;2.20;;;1.50;;
29214;SDS011;16252;49.816;7.964;2023-07-24T06:08:15;2.10;;;1.60;;
29214;SDS011;16252;49.816;7.964;2023-07-24T06:10:40;2.15;;;1.58;;
29214;SDS011;16252;49.816;7.964;2023-07-24T06:13:06;3.78;;;2.13;;
29214;SDS011;16252;49.816;7.964;2023-07-24T06:15:31;2.28;;;1.70;;
29214;SDS011;16252;49.816;7.964;2023-07-24T06:17:56;4.47;;;2.03;;
29214;SDS011;16252;49.816;7.964;2023-07-24T06:20:21;2.60;;;2.10;;
29214;SDS011;16252;49.816;7.964;2023-07-24T06:22:47;2.67;;;1.55;;
29214;SDS011;16252;49.816;7.964;2023-07-24T06:25:12;2.17;;;1.65;;
29214;SDS011;16252;49.816;7.964;2023-07-24T06:27:37;4.22;;;1.80;;
29214;SDS011;16252;49.816;7.964;2023-07-24T06:30:03;3.00;;;1.83;;
29214;SDS011;16252;49.816;7.964;2023-07-24T06:32:28;3.25;;;1.80;;
29214;SDS011;16252;49.816;7.964;2023-07-24T06:34:53;5.15;;;1.60;;
29214;SDS011;16252;49.816;7.964;2023-07-24T06:37:19;2.95;;;2.03;;
29214;SDS011;16252;49.816;7.964;2023-07-24T06:39:44;2.42;;;2.05;;
29214;SDS011;16252;49.816;7.964;2023-07-24T06:42:09;6.40;;;2.50;;
29214;SDS011;16252;49.816;7.964;2023-07-24T06:44:35;5.20;;;1.98;;
29214;SDS011;16252;49.816;7.964;2023-07-24T06:47:00;4.55;;;1.92;;
29214;SDS011;16252;49.816;7.964;2023-07-24T06:49:25;4.30;;;2.10;;
29214;SDS011;16252;49.816;7.964;2023-07-24T06:51:50;3.60;;;1.70;;
29214;SDS011;16252;49.816;7.964;2023-07-24T06:54:16;4.80;;;2.10;;
29214;SDS011;16252;49.816;7.964;2023-07-24T06:56:41;2.80;;;2.03;;
29214;SDS011;16252;49.816;7.964;2023-07-24T06:59:06;5.03;;;2.30;;
29214;SDS011;16252;49.816;7.964;2023-07-24T07:01:32;3.88;;;2.15;;
29214;SDS011;16252;49.816;7.964;2023-07-24T07:03:57;3.00;;;1.92;;
29214;SDS011;16252;49.816;7.964;2023-07-24T07:06:22;5.05;;;2.30;;
29214;SDS011;16252;49.816;7.964;2023-07-24T07:08:48;2.63;;;1.60;;
29214;SDS011;16252;49.816;7.964;2023-07-24T07:11:13;2.25;;;1.65;;
29214;SDS011;16252;49.816;7.964;2023-07-24T07:13:38;2.72;;;1.92;;
29214;SDS011;16252;49.816;7.964;2023-07-24T07:16:04;2.70;;;1.90;;
29214;SDS011;16252;49.816;7.964;2023-07-24T07:18:29;2.75;;;1.85;;
29214;SDS011;16252;49.816;7.964;2023-07-24T07:20:54;3.92;;;1.70;;
29214;SDS011;16252;49.816;7.964;2023-07-24T07:23:20;1.98;;;1.67;;
29214;SDS011;16252;49.816;7.964;2023-07-24T07:25:46;2.25;;;1.58;;
29214;SDS011;16252;49.816;7.964;2023-07-24T07:28:12;2.70;;;2.03;;
29214;SDS011;16252;49.816;7.964;2023-07-24T07:30:37;2.60;;;2.08;;
29214;SDS011;16252;49.816;7.964;2023-07-24T07:33:03;4.20;;;1.90;;
29214;SDS011;16252;49.816;7.964;2023-07-24T07:35:30;4.50;;;1.67;;
29214;SDS011;16252;49.816;7.964;2023-07-24T07:37:57;2.60;;;1.85;;
29214;SDS011;16252;49.816;7.964;2023-07-24T07:40:22;1.70;;;1.40;;
29214;SDS011;16252;49.816;7.964;2023-07-24T07:42:48;2.00;;;1.33;;
29214;SDS011;16252;49.816;7.964;2023-07-24T07:45:13;2.22;;;1.50;;
29214;SDS011;16252;49.816;7.964;2023-07-24T07:47:39;3.25;;;2.03;;
29214;SDS011;16252;49.816;7.964;2023-07-24T07:50:04;2.25;;;1.80;;
29214;SDS011;16252;49.816;7.964;2023-07-24T07:52:30;2.55;;;1.88;;
29214;SDS011;16252;49.816;7.964;2023-07-24T07:54:55;2.63;;;1.75;;
29214;SDS011;16252;49.816;7.964;2023-07-24T07:57:20;2.50;;;1.83;;
29214;SDS011;16252;49.816;7.964;2023-07-24T07:59:45;7.55;;;1.88;;
29214;SDS011;16252;49.816;7.964;2023-07-24T08:02:11;3.28;;;2.00;;
29214;SDS011;16252;49.816;7.964;2023-07-24T08:04:36;3.17;;;1.85;;
29214;SDS011;16252;49.816;7.964;2023-07-24T08:07:02;2.72;;;1.90;;
29214;SDS011;16252;49.816;7.964;2023-07-24T08:09:27;3.95;;;2.10;;
29214;SDS011;16252;49.816;7.964;2023-07-24T08:11:53;2.35;;;1.80;;
29214;SDS011;16252;49.816;7.964;2023-07-24T08:14:18;2.30;;;1.77;;
29214;SDS011;16252;49.816;7.964;2023-07-24T08:16:44;2.30;;;1.80;;
29214;SDS011;16252;49.816;7.964;2023-07-24T08:19:09;3.00;;;1.77;;
29214;SDS011;16252;49.816;7.964;2023-07-24T08:21:34;2.13;;;1.92;;
29214;SDS011;16252;49.816;7.964;2023-07-24T08:24:00;2.10;;;1.90;;
29214;SDS011;16252;49.816;7.964;2023-07-24T08:26:26;2.70;;;1.73;;
29214;SDS011;16252;49.816;7.964;2023-07-24T08:28:52;2.45;;;1.92;;
29214;SDS011;16252;49.816;7.964;2023-07-24T08:31:18;2.92;;;1.77;;
29214;SDS011;16252;49.816;7.964;2023-07-24T08:33:43;2.90;;;1.80;;
29214;SDS011;16252;49.816;7.964;2023-07-24T08:36:08;2.30;;;1.42;;
29214;SDS011;16252;49.816;7.964;2023-07-24T08:38:36;2.10;;;1.70;;
29214;SDS011;16252;49.816;7.964;2023-07-24T08:43:27;1.80;;;1.52;;
29214;SDS011;16252;49.816;7.964;2023-07-24T08:45:55;5.22;;;2.20;;
29214;SDS011;16252;49.816;7.964;2023-07-24T08:48:22;2.53;;;2.10;;
29214;SDS011;16252;49.816;7.964;2023-07-24T08:50:48;2.78;;;1.80;;
29214;SDS011;16252;49.816;7.964;2023-07-24T08:53:16;3.00;;;2.03;;
29214;SDS011;16252;49.816;7.964;2023-07-24T08:55:43;2.55;;;1.83;;
29214;SDS011;16252;49.816;7.964;2023-07-24T08:58:10;2.55;;;2.03;;
29214;SDS011;16252;49.816;7.964;2023-07-24T09:00:35;2.58;;;1.80;;
29214;SDS011;16252;49.816;7.964;2023-07-24T09:03:00;3.42;;;2.30;;
29214;SDS011;16252;49.816;7.964;2023-07-24T09:05:26;2.38;;;1.90;;
29214;SDS011;16252;49.816;7.964;2023-07-24T09:07:51;2.50;;;1.98;;
29214;SDS011;16252;49.816;7.964;2023-07-24T09:10:23;2.90;;;2.05;;
29214;SDS011;16252;49.816;7.964;2023-07-24T09:12:50;2.65;;;2.05;;
29214;SDS011;16252;49.816;7.964;2023-07-24T09:15:15;4.70;;;2.30;;
29214;SDS011;16252;49.816;7.964;2023-07-24T09:17:48;2.67;;;1.98;;
29214;SDS011;16252;49.816;7.964;2023-07-24T09:20:16;3.05;;;2.25;;
29214;SDS011;16252;49.816;7.964;2023-07-24T09:22:48;5.53;;;2.40;;
29214;SDS011;16252;49.816;7.964;2023-07-24T09:25:14;3.17;;;2.55;;
29214;SDS011;16252;49.816;7.964;2023-07-24T09:27:40;3.00;;;2.50;;
29214;SDS011;16252;49.816;7.964;2023-07-24T09:30:12;4.13;;;2.85;;
29214;SDS011;16252;49.816;7.964;2023-07-24T09:32:39;3.15;;;2.53;;
29214;SDS011;16252;49.816;7.964;2023-07-24T09:35:04;3.47;;;2.50;;
29214;SDS011;16252;49.816;7.964;2023-07-24T09:37:40;3.33;;;2.42;;
29214;SDS011;16252;49.816;7.964;2023-07-24T09:40:06;3.25;;;2.80;;
29214;SDS011;16252;49.816;7.964;2023-07-24T09:42:32;3.83;;;2.70;;
29214;SDS011;16252;49.816;7.964;2023-07-24T09:45:00;4.75;;;2.80;;
29214;SDS011;16252;49.816;7.964;2023-07-24T09:47:26;4.07;;;2.83;;
29214;SDS011;16252;49.816;7.964;2023-07-24T09:49:52;6.68;;;2.70;;
29214;SDS011;16252;49.816;7.964;2023-07-24T09:52:18;3.22;;;2.88;;
29214;SDS011;16252;49.816;7.964;2023-07-24T09:54:49;3.90;;;2.63;;
29214;SDS011;16252;49.816;7.964;2023-07-24T09:57:21;3.08;;;2.55;;
29214;SDS011;16252;49.816;7.964;2023-07-24T09:59:48;3.10;;;2.60;;
29214;SDS011;16252;49.816;7.964;2023-07-24T10:02:14;3.92;;;2.80;;
29214;SDS011;16252;49.816;7.964;2023-07-24T10:04:40;3.13;;;2.80;;
29214;SDS011;16252;49.816;7.964;2023-07-24T10:07:06;3.63;;;2.70;;
29214;SDS011;16252;49.816;7.964;2023-07-24T10:09:32;3.25;;;2.42;;
29214;SDS011;16252;49.816;7.964;2023-07-24T10:11:58;3.00;;;2.33;;
29214;SDS011;16252;49.816;7.964;2023-07-24T10:14:25;2.72;;;2.20;;
29214;SDS011;16252;49.816;7.964;2023-07-24T10:16:51;3.22;;;2.40;;
29214;SDS011;16252;49.816;7.964;2023-07-24T10:19:20;3.42;;;2.60;;
29214;SDS011;16252;49.816;7.964;2023-07-24T10:21:48;2.92;;;2.50;;
29214;SDS011;16252;49.816;7.964;2023-07-24T10:24:15;3.53;;;2.67;;
29214;SDS011;16252;49.816;7.964;2023-07-24T10:26:41;3.83;;;2.80;;
29214;SDS011;16252;49.816;7.964;2023-07-24T10:29:06;4.22;;;2.90;;
29214;SDS011;16252;49.816;7.964;2023-07-24T10:31:32;3.70;;;2.75;;
29214;SDS011;16252;49.816;7.964;2023-07-24T10:34:04;3.88;;;3.10;;
29214;SDS011;16252;49.816;7.964;2023-07-24T10:36:33;4.30;;;2.85;;
29214;SDS011;16252;49.816;7.964;2023-07-24T10:38:59;3.60;;;2.63;;
29214;SDS011;16252;49.816;7.964;2023-07-24T10:41:35;3.35;;;2.47;;
29214;SDS011;16252;49.816;7.964;2023-07-24T10:44:02;3.67;;;2.75;;
29214;SDS011;16252;49.816;7.964;2023-07-24T10:46:38;3.28;;;2.50;;
29214;SDS011;16252;49.816;7.964;2023-07-24T10:49:05;3.78;;;2.70;;
29214;SDS011;16252;49.816;7.964;2023-07-24T10:51:30;3.30;;;2.55;;
29214;SDS011;16252;49.816;7.964;2023-07-24T10:54:02;3.28;;;2.67;;
29214;SDS011;16252;49.816;7.964;2023-07-24T10:56:28;5.53;;;2.70;;
29214;SDS011;16252;49.816;7.964;2023-07-24T10:58:54;3.42;;;2.70;;
29214;SDS011;16252;49.816;7.964;2023-07-24T11:01:19;4.20;;;2.72;;
29214;SDS011;16252;49.816;7.964;2023-07-24T11:03:45;4.10;;;2.95;;
29214;SDS011;16252;49.816;7.964;2023-07-24T11:06:17;4.15;;;2.97;;
29214;SDS011;16252;49.816;7.964;2023-07-24T11:08:51;5.63;;;2.58;;
29214;SDS011;16252;49.816;7.964;2023-07-24T11:11:17;3.58;;;2.80;;
29214;SDS011;16252;49.816;7.964;2023-07-24T11:13:42;3.30;;;2.65;;
29214;SDS011;16252;49.816;7.964;2023-07-24T11:16:08;3.67;;;2.80;;
29214;SDS011;16252;49.816;7.964;2023-07-24T11:18:43;5.03;;;3.22;;
29214;SDS011;16252;49.816;7.964;2023-07-24T11:21:11;3.63;;;2.83;;
29214;SDS011;16252;49.816;7.964;2023-07-24T11:23:37;2.78;;;2.28;;
29214;SDS011;16252;49.816;7.964;2023-07-24T11:26:04;3.08;;;2.47;;
29214;SDS011;16252;49.816;7.964;2023-07-24T11:28:38;4.53;;;2.90;;
29214;SDS011;16252;49.816;7.964;2023-07-24T11:31:04;3.28;;;2.70;;
29214;SDS011;16252;49.816;7.964;2023-07-24T11:33:29;2.72;;;2.25;;
29214;SDS011;16252;49.816;7.964;2023-07-24T11:35:55;2.67;;;2.30;;
29214;SDS011;16252;49.816;7.964;2023-07-24T11:38:21;4.28;;;2.67;;
29214;SDS011;16252;49.816;7.964;2023-07-24T11:40:46;3.63;;;2.60;;
29214;SDS011;16252;49.816;7.964;2023-07-24T11:43:18;3.20;;;2.70;;
29214;SDS011;16252;49.816;7.964;2023-07-24T11:45:45;4.68;;;2.88;;
29214;SDS011;16252;49.816;7.964;2023-07-24T11:48:17;3.03;;;2.42;;
29214;SDS011;16252;49.816;7.964;2023-07-24T11:50:43;4.05;;;2.97;;
29214;SDS011;16252;49.816;7.964;2023-07-24T11:53:18;2.67;;;2.22;;
29214;SDS011;16252;49.816;7.964;2023-07-24T11:55:47;3.75;;;2.50;;
29214;SDS011;16252;49.816;7.964;2023-07-24T11:58:14;2.97;;;2.25;;
29214;SDS011;16252;49.816;7.964;2023-07-24T12:00:41;4.28;;;2.85;;
29214;SDS011;16252;49.816;7.964;2023-07-24T12:03:06;5.70;;;3.00;;
29214;SDS011;16252;49.816;7.964;2023-07-24T12:05:39;3.05;;;2.70;;
29214;SDS011;16252;49.816;7.964;2023-07-24T12:08:06;4.15;;;2.97;;
29214;SDS011;16252;49.816;7.964;2023-07-24T12:10:31;4.15;;;2.85;;
29214;SDS011;16252;49.816;7.964;2023-07-24T12:13:00;3.72;;;2.92;;
29214;SDS011;16252;49.816;7.964;2023-07-24T12:15:25;3.65;;;3.08;;
29214;SDS011;16252;49.816;7.964;2023-07-24T12:17:52;3.15;;;2.55;;
29214;SDS011;16252;49.816;7.964;2023-07-24T12:20:17;3.20;;;2.70;;
29214;SDS011;16252;49.816;7.964;2023-07-24T12:22:43;3.88;;;2.60;;
29214;SDS011;16252;49.816;7.964;2023-07-24T12:25:08;3.08;;;2.50;;
29214;SDS011;16252;49.816;7.964;2023-07-24T12:27:33;2.75;;;2.40;;
29214;SDS011;16252;49.816;7.964;2023-07-24T12:29:59;3.55;;;2.55;;
29214;SDS011;16252;49.816;7.964;2023-07-24T12:32:24;3.58;;;2.67;;
29214;SDS011;16252;49.816;7.964;2023-07-24T12:34:50;4.72;;;3.10;;
29214;SDS011;16252;49.816;7.964;2023-07-24T12:37:17;2.95;;;2.55;;
29214;SDS011;16252;49.816;7.964;2023-07-24T12:39:43;4.45;;;2.58;;
29214;SDS011;16252;49.816;7.964;2023-07-24T12:42:10;3.72;;;2.65;;
29214;SDS011;16252;49.816;7.964;2023-07-24T12:44:36;2.60;;;2.28;;
29214;SDS011;16252;49.816;7.964;2023-07-24T12:47:01;4.72;;;2.90;;
29214;SDS011;16252;49.816;7.964;2023-07-24T12:49:26;3.60;;;2.70;;
29214;SDS011;16252;49.816;7.964;2023-07-24T12:51:51;4.15;;;2.55;;
29214;SDS011;16252;49.816;7.964;2023-07-24T12:54:17;3.33;;;2.60;;
29214;SDS011;16252;49.816;7.964;2023-07-24T12:56:44;3.95;;;2.53;;
29214;SDS011;16252;49.816;7.964;2023-07-24T12:59:10;3.20;;;2.60;;
29214;SDS011;16252;49.816;7.964;2023-07-24T13:01:35;3.83;;;2.45;;
29214;SDS011;16252;49.816;7.964;2023-07-24T13:04:00;3.33;;;2.78;;
29214;SDS011;16252;49.816;7.964;2023-07-24T13:06:26;5.32;;;2.50;;
29214;SDS011;16252;49.816;7.964;2023-07-24T13:08:51;3.70;;;2.63;;
29214;SDS011;16252;49.816;7.964;2023-07-24T13:11:17;3.38;;;3.00;;
29214;SDS011;16252;49.816;7.964;2023-07-24T13:13:42;3.63;;;2.90;;
29214;SDS011;16252;49.816;7.964;2023-07-24T13:16:07;3.88;;;3.13;;
29214;SDS011;16252;49.816;7.964;2023-07-24T13:18:32;3.75;;;2.83;;
29214;SDS011;16252;49.816;7.964;2023-07-24T13:20:58;4.57;;;2.80;;
29214;SDS011;16252;49.816;7.964;2023-07-24T13:23:23;4.68;;;3.67;;
29214;SDS011;16252;49.816;7.964;2023-07-24T13:25:49;4.88;;;3.38;;
29214;SDS011;16252;49.816;7.964;2023-07-24T13:28:15;3.75;;;2.78;;
29214;SDS011;16252;49.816;7.964;2023-07-24T13:30:41;4.72;;;3.38;;
29214;SDS011;16252;49.816;7.964;2023-07-24T13:33:06;3.60;;;3.08;;
29214;SDS011;16252;49.816;7.964;2023-07-24T13:35:32;3.55;;;2.95;;
29214;SDS011;16252;49.816;7.964;2023-07-24T13:37:57;2.97;;;2.55;;
29214;SDS011;16252;49.816;7.964;2023-07-24T13:40:22;3.45;;;2.63;;
29214;SDS011;16252;49.816;7.964;2023-07-24T13:42:48;2.67;;;2.42;;
29214;SDS011;16252;49.816;7.964;2023-07-24T13:45:13;3.20;;;2.45;;
29214;SDS011;16252;49.816;7.964;2023-07-24T13:47:38;2.95;;;2.40;;
29214;SDS011;16252;49.816;7.964;2023-07-24T13:50:04;2.67;;;2.05;;
29214;SDS011;16252;49.816;7.964;2023-07-24T13:52:29;3.70;;;2.45;;
29214;SDS011;16252;49.816;7.964;2023-07-24T13:54:55;3.03;;;2.63;;
29214;SDS011;16252;49.816;7.964;2023-07-24T13:57:20;2.75;;;2.47;;
29214;SDS011;16252;49.816;7.964;2023-07-24T13:59:46;2.70;;;2.38;;
29214;SDS011;16252;49.816;7.964;2023-07-24T14:02:12;2.83;;;2.33;;
29214;SDS011;16252;49.816;7.964;2023-07-24T14:04:38;3.10;;;2.22;;
29214;SDS011;16252;49.816;7.964;2023-07-24T14:07:03;2.78;;;2.13;;
29214;SDS011;16252;49.816;7.964;2023-07-24T14:09:28;2.30;;;1.70;;
29214;SDS011;16252;49.816;7.964;2023-07-24T14:11:55;2.42;;;1.92;;
29214;SDS011;16252;49.816;7.964;2023-07-24T14:14:21;2.63;;;1.77;;
29214;SDS011;16252;49.816;7.964;2023-07-24T14:16:48;1.88;;;1.58;;
29214;SDS011;16252;49.816;7.964;2023-07-24T14:19:13;2.30;;;1.92;;
29214;SDS011;16252;49.816;7.964;2023-07-24T14:21:39;2.22;;;1.80;;
29214;SDS011;16252;49.816;7.964;2023-07-24T14:24:05;2.20;;;1.73;;
29214;SDS011;16252;49.816;7.964;2023-07-24T14:26:30;1.83;;;1.63;;
29214;SDS011;16252;49.816;7.964;2023-07-24T14:28:55;1.60;;;1.50;;
29214;SDS011;16252;49.816;7.964;2023-07-24T14:31:21;1.55;;;1.35;;
29214;SDS011;16252;49.816;7.964;2023-07-24T14:33:46;2.20;;;1.80;;
29214;SDS011;16252;49.816;7.964;2023-07-24T14:36:11;1.88;;;1.52;;
29214;SDS011;16252;49.816;7.964;2023-07-24T14:38:36;1.73;;;1.50;;
29214;SDS011;16252;49.816;7.964;2023-07-24T14:41:02;1.98;;;1.65;;
29214;SDS011;16252;49.816;7.964;2023-07-24T14:43:27;1.70;;;1.40;;
29214;SDS011;16252;49.816;7.964;2023-07-24T14:45:52;1.70;;;1.42;;
29214;SDS011;16252;49.816;7.964;2023-07-24T14:48:17;1.60;;;1.23;;